createdAt,value
2023-03-20T00:00:33.088Z,70.56
2023-03-20T00:02:59.766Z,69.91
2023-03-20T00:05:28.327Z,70.12
2023-03-20T00:07:55.354Z,69.36
2023-03-20T00:10:25.765Z,69.79
2023-03-20T00:12:54.816Z,69.75
2023-03-20T00:15:35.505Z,69.51
2023-03-20T00:18:02.118Z,69.08
2023-03-20T00:20:29.960Z,69.96
2023-03-20T00:22:57.946Z,70.15
2023-03-20T00:25:25.817Z,69.85
2023-03-20T00:27:52.378Z,70.05
2023-03-20T00:30:20.921Z,70.42
2023-03-20T00:32:48.611Z,70.18
2023-03-20T00:35:22.513Z,69.82
2023-03-20T00:37:50.225Z,70.58
2023-03-20T00:40:19.593Z,69.94
2023-03-20T00:42:57.772Z,70.25
2023-03-20T00:45:24.426Z,69.53
2023-03-20T00:47:51.894Z,69.85
2023-03-20T00:50:24.648Z,69.64
2023-03-20T00:52:51.226Z,70.13
2023-03-20T00:55:23.426Z,69.27
2023-03-20T00:57:59.269Z,69.79
2023-03-20T01:00:39.891Z,69.68
2023-03-20T01:03:15.588Z,69.39
2023-03-20T01:05:42.117Z,68.96
2023-03-20T01:08:26.900Z,69.73
2023-03-20T01:10:57.579Z,69.52
2023-03-20T01:13:27.421Z,69.38
2023-03-20T01:15:56.538Z,68.97
2023-03-20T01:18:24.673Z,69.14
2023-03-20T01:20:53.003Z,69.63
2023-03-20T01:23:22.866Z,69.56
2023-03-20T01:25:50.229Z,69.51
2023-03-20T01:28:23.144Z,69.50
2023-03-20T01:30:52.575Z,68.99
2023-03-20T01:33:26.394Z,69.90
2023-03-20T01:35:52.891Z,69.51
2023-03-20T01:38:22.951Z,69.08
2023-03-20T01:41:12.294Z,69.13
2023-03-20T01:43:38.694Z,69.05
2023-03-20T01:46:21.235Z,69.76
2023-03-20T01:48:50.653Z,70.09
2023-03-20T01:51:22.669Z,69.23
2023-03-20T01:54:14.629Z,69.13
2023-03-20T01:56:48.160Z,69.03
2023-03-20T01:59:21.446Z,70.21
2023-03-20T02:01:47.889Z,70.53
2023-03-20T02:04:16.683Z,70.39
2023-03-20T02:06:45.173Z,70.16
2023-03-20T02:09:12.330Z,69.74
2023-03-20T02:11:41.868Z,68.73
2023-03-20T02:14:08.487Z,69.55
2023-03-20T02:16:34.912Z,70.51
2023-03-20T02:19:02.060Z,70.63
2023-03-20T02:21:37.579Z,70.88
2023-03-20T02:24:23.858Z,70.48
2023-03-20T02:27:02.367Z,71.26
2023-03-20T02:30:16.653Z,71.38
2023-03-20T02:33:11.334Z,71.27
2023-03-20T02:36:09.003Z,71.65
2023-03-20T02:38:58.769Z,71.58
2023-03-20T02:41:37.996Z,72.02
2023-03-20T02:44:11.548Z,72.31
2023-03-20T02:46:52.690Z,72.50
2023-03-20T02:49:47.091Z,72.13
2023-03-20T02:52:17.491Z,73.11
2023-03-20T02:55:19.447Z,71.94
2023-03-20T02:57:55.363Z,70.95
2023-03-20T03:00:28.468Z,70.25
2023-03-20T03:03:06.711Z,70.11
2023-03-20T03:05:56.279Z,70.54
2023-03-20T03:08:28.565Z,70.31
2023-03-20T03:11:01.248Z,71.05
2023-03-20T03:13:30.582Z,70.39
2023-03-20T03:16:04.207Z,71.63
2023-03-20T03:18:34.491Z,72.33
2023-03-20T03:21:03.675Z,72.34
2023-03-20T03:23:40.410Z,74.02
2023-03-20T03:26:08.062Z,73.14
2023-03-20T03:28:45.783Z,73.42
2023-03-20T03:31:15.296Z,73.30
2023-03-20T03:33:46.925Z,73.35
2023-03-20T03:36:41.307Z,73.08
2023-03-20T03:39:44.657Z,73.04
2023-03-20T03:42:27.728Z,72.38
2023-03-20T03:45:31.725Z,72.51
2023-03-20T03:48:13.914Z,72.83
2023-03-20T03:50:48.325Z,72.83
2023-03-20T03:53:19.705Z,72.71
2023-03-20T03:55:52.586Z,72.62
2023-03-20T03:58:25.712Z,72.73
2023-03-20T04:00:55.936Z,73.04
2023-03-20T04:03:28.399Z,73.04
2023-03-20T04:05:58.060Z,73.69
2023-03-20T04:08:24.528Z,73.54
2023-03-20T04:10:51.170Z,73.58
2023-03-20T04:13:17.627Z,73.11
2023-03-20T04:15:44.438Z,72.70
2023-03-20T04:18:16.712Z,72.59
2023-03-20T04:20:44.809Z,71.97
2023-03-20T04:23:11.358Z,73.32
2023-03-20T04:25:38.124Z,74.48
2023-03-20T04:28:05.152Z,75.32
2023-03-20T04:30:31.641Z,75.53
2023-03-20T04:32:58.117Z,75.27
2023-03-20T04:35:24.793Z,75.19
2023-03-20T04:37:51.187Z,75.46
2023-03-20T04:40:17.766Z,76.08
2023-03-20T04:42:44.257Z,76.56
2023-03-20T04:45:10.776Z,77.07
2023-03-20T04:47:39.529Z,76.93
2023-03-20T04:50:07.192Z,77.31
2023-03-20T04:52:33.592Z,76.33
2023-03-20T04:55:00.169Z,75.74
2023-03-20T04:57:27.124Z,75.40
2023-03-20T04:59:53.657Z,74.38
2023-03-20T05:02:20.456Z,74.19
2023-03-20T05:04:47.151Z,73.74
2023-03-20T05:07:13.516Z,73.19
2023-03-20T05:09:40.248Z,73.32
2023-03-20T05:12:07.040Z,73.06
2023-03-20T05:14:33.448Z,74.08
2023-03-20T05:16:59.846Z,73.91
2023-03-20T05:19:26.322Z,73.83
2023-03-20T05:21:52.813Z,74.41
2023-03-20T05:24:19.354Z,73.82
2023-03-20T05:26:45.828Z,73.35
2023-03-20T05:29:12.277Z,74.01
2023-03-20T05:31:39.154Z,74.00
2023-03-20T05:34:05.729Z,73.29
2023-03-20T05:36:32.241Z,73.15
2023-03-20T05:38:58.949Z,72.62
2023-03-20T05:41:46.297Z,72.64
2023-03-20T05:44:12.771Z,73.36
2023-03-20T05:46:39.170Z,74.14
2023-03-20T05:49:05.567Z,74.38
2023-03-20T05:51:31.927Z,73.57
2023-03-20T05:53:58.400Z,73.88
2023-03-20T05:56:24.865Z,72.93
2023-03-20T05:58:52.035Z,72.64
2023-03-20T06:01:21.377Z,71.95
2023-03-20T06:03:48.816Z,73.27
2023-03-20T06:06:16.550Z,72.91
2023-03-20T06:08:43.124Z,73.18
2023-03-20T06:11:10.371Z,73.39
2023-03-20T06:13:36.731Z,73.41
2023-03-20T06:16:03.406Z,73.99
2023-03-20T06:18:29.826Z,73.49
2023-03-20T06:20:57.705Z,74.17
2023-03-20T06:23:24.809Z,73.40
2023-03-20T06:25:51.231Z,72.58
2023-03-20T06:28:17.621Z,72.86
2023-03-20T06:30:44.499Z,72.51
2023-03-20T06:33:10.936Z,72.44
2023-03-20T06:35:37.551Z,72.31
2023-03-20T06:38:04.147Z,72.42
2023-03-20T06:40:30.541Z,72.71
2023-03-20T06:42:56.982Z,72.29
2023-03-20T06:45:23.395Z,72.75
2023-03-20T06:47:49.740Z,72.35
2023-03-20T06:50:16.568Z,72.74
2023-03-20T06:52:43.330Z,72.46
2023-03-20T06:55:09.880Z,72.82
2023-03-20T06:57:36.234Z,72.60
2023-03-20T07:00:05.507Z,71.81
2023-03-20T07:02:32.381Z,72.75
2023-03-20T07:04:59.104Z,72.34
2023-03-20T07:07:25.694Z,72.54
2023-03-20T07:09:52.222Z,72.40
2023-03-20T07:12:21.371Z,73.48
2023-03-20T07:14:47.752Z,73.17
2023-03-20T07:17:14.083Z,72.25
2023-03-20T07:19:41.352Z,73.48
2023-03-20T07:22:15.294Z,72.69
2023-03-20T07:24:41.679Z,72.52
2023-03-20T07:27:08.006Z,71.80
2023-03-20T07:29:34.355Z,72.05
2023-03-20T07:32:02.420Z,71.86
2023-03-20T07:34:28.761Z,71.72
2023-03-20T07:36:55.333Z,70.68
2023-03-20T07:39:22.200Z,71.02
2023-03-20T07:41:48.581Z,70.07
2023-03-20T07:44:15.163Z,71.40
2023-03-20T07:46:41.571Z,71.87
2023-03-20T07:49:08.028Z,70.71
2023-03-20T07:51:34.504Z,70.45
2023-03-20T07:54:00.982Z,70.70
2023-03-20T07:56:27.381Z,69.79
2023-03-20T07:58:54.669Z,69.75
2023-03-20T08:01:21.326Z,69.92
2023-03-20T08:03:47.853Z,69.52
2023-03-20T08:06:14.195Z,69.46
2023-03-20T08:08:41.895Z,68.78
2023-03-20T08:11:08.306Z,68.62
2023-03-20T08:13:34.680Z,67.65
2023-03-20T08:16:01.232Z,68.10
2023-03-20T08:18:27.559Z,68.43
2023-03-20T08:20:53.887Z,68.14
2023-03-20T08:23:20.994Z,67.82
2023-03-20T08:25:52.074Z,66.90
2023-03-20T08:28:18.807Z,66.19
2023-03-20T08:30:45.242Z,66.18
2023-03-20T08:33:12.086Z,64.33
2023-03-20T08:35:38.620Z,65.65
2023-03-20T08:38:05.093Z,65.73
2023-03-20T08:40:31.766Z,65.32
2023-03-20T08:42:59.377Z,64.92
2023-03-20T08:45:26.190Z,63.64
2023-03-20T08:47:53.333Z,63.16
2023-03-20T08:50:19.968Z,63.23
2023-03-20T08:52:46.921Z,64.04
2023-03-20T08:55:15.020Z,64.57
2023-03-20T08:57:41.601Z,63.15
2023-03-20T09:00:10.373Z,63.63
2023-03-20T09:02:36.892Z,63.52
2023-03-20T09:05:03.646Z,64.27
2023-03-20T09:07:30.037Z,64.18
2023-03-20T09:09:56.541Z,63.06
2023-03-20T09:12:22.963Z,63.79
2023-03-20T09:14:49.379Z,62.98
2023-03-20T09:17:15.896Z,62.17
2023-03-20T09:19:44.577Z,61.92
2023-03-20T09:22:13.892Z,61.05
2023-03-20T09:24:40.814Z,60.03
2023-03-20T09:27:07.201Z,60.20
2023-03-20T09:29:33.542Z,59.66
2023-03-20T09:31:59.914Z,58.74
2023-03-20T09:34:26.331Z,57.66
2023-03-20T09:36:52.942Z,56.73
2023-03-20T09:39:19.290Z,56.81
2023-03-20T09:41:57.249Z,57.33
2023-03-20T09:44:29.884Z,57.69
2023-03-20T09:47:18.500Z,56.69
2023-03-20T09:50:23.713Z,58.13
2023-03-20T09:53:36.778Z,58.27
2023-03-20T09:56:04.094Z,58.92
2023-03-20T09:58:34.160Z,58.93
2023-03-20T10:01:02.662Z,58.68
2023-03-20T10:03:38.960Z,58.52
2023-03-20T10:06:12.061Z,58.44
2023-03-20T10:08:39.310Z,59.12
2023-03-20T10:11:27.299Z,58.40
2023-03-20T10:14:42.016Z,57.89
2023-03-20T10:17:14.301Z,58.06
2023-03-20T10:19:50.923Z,57.23
2023-03-20T10:22:35.891Z,57.91
2023-03-20T10:25:17.657Z,58.68
2023-03-20T10:27:49.511Z,58.95
2023-03-20T10:30:53.486Z,59.47
2023-03-20T10:33:52.672Z,60.26
2023-03-20T10:36:47.869Z,60.08
2023-03-20T10:39:50.378Z,60.50
2023-03-20T10:42:22.789Z,60.75
2023-03-20T10:44:55.497Z,62.63
2023-03-20T10:47:26.673Z,64.05
2023-03-20T10:49:58.218Z,66.01
2023-03-20T10:52:32.228Z,68.13
2023-03-20T10:55:19.400Z,69.38
2023-03-20T10:57:52.730Z,70.96
2023-03-20T11:00:25.858Z,71.24
2023-03-20T11:02:52.353Z,72.53
2023-03-20T11:05:39.492Z,71.87
2023-03-20T11:08:08.906Z,71.10
2023-03-20T11:10:37.890Z,72.19
2023-03-20T11:13:26.533Z,72.77
2023-03-20T11:15:54.190Z,73.73
2023-03-20T11:18:23.284Z,73.54
2023-03-20T11:20:52.889Z,73.63
2023-03-20T11:23:25.583Z,74.06
2023-03-20T11:25:57.395Z,72.71
2023-03-20T11:28:40.607Z,72.13
2023-03-20T11:31:17.880Z,71.35
2023-03-20T11:33:46.963Z,71.60
2023-03-20T11:36:29.944Z,72.33
2023-03-20T11:39:14.567Z,72.61
2023-03-20T11:41:50.082Z,73.09
2023-03-20T11:44:37.011Z,72.52
2023-03-20T11:47:22.528Z,71.46
2023-03-20T11:49:56.075Z,72.25
2023-03-20T11:52:25.904Z,70.65
2023-03-20T11:54:56.114Z,71.00
2023-03-20T11:57:37.243Z,69.87
2023-03-20T12:00:26.022Z,68.13
2023-03-20T12:02:52.601Z,67.83
2023-03-20T12:05:43.870Z,65.85
2023-03-20T12:08:20.105Z,66.07
2023-03-20T12:10:55.495Z,65.88
2023-03-20T12:13:26.210Z,62.21
2023-03-20T12:15:59.414Z,63.26
2023-03-20T12:18:40.902Z,61.32
2023-03-20T12:21:13.353Z,61.51
2023-03-20T12:24:25.785Z,60.34
2023-03-20T12:27:07.723Z,59.64
2023-03-20T13:15:01.284Z,57.56
2023-03-20T13:17:44.728Z,58.62
2023-03-20T13:20:28.929Z,57.49
2023-03-20T13:23:21.978Z,59.31
2023-03-20T13:25:58.584Z,58.77
2023-03-20T13:29:01.930Z,58.99
2023-03-20T13:31:36.803Z,59.32
2023-03-20T13:34:03.253Z,59.24
2023-03-20T13:36:54.008Z,58.68
2023-03-20T13:39:42.988Z,58.24
2023-03-20T13:42:14.847Z,58.30
2023-03-20T13:44:43.241Z,58.69
2023-03-20T13:47:18.123Z,59.07
2023-03-20T13:50:01.612Z,59.85
2023-03-20T13:52:42.706Z,59.57
2023-03-20T13:55:35.832Z,59.31
2023-03-20T13:58:27.940Z,58.26
2023-03-20T14:01:06.675Z,58.48
2023-03-20T14:03:37.260Z,58.77
2023-03-20T14:06:31.750Z,58.28
2023-03-20T14:08:59.450Z,58.26
2023-03-20T14:11:35.045Z,58.71
2023-03-20T14:14:19.631Z,58.25
2023-03-20T14:16:45.881Z,58.19
2023-03-20T14:19:21.087Z,58.25
2023-03-20T14:21:49.114Z,58.98
2023-03-20T14:24:19.338Z,59.05
2023-03-20T14:26:52.730Z,58.91
2023-03-20T14:29:46.836Z,59.33
2023-03-20T14:32:13.144Z,57.54
2023-03-20T14:35:18.828Z,58.57
2023-03-20T14:38:20.827Z,57.98
2023-03-20T14:40:59.592Z,58.07
2023-03-20T14:43:58.556Z,60.22
2023-03-20T14:46:46.865Z,58.87
2023-03-20T14:49:22.717Z,60.54
2023-03-20T14:51:53.085Z,61.33
2023-03-20T14:54:22.421Z,62.38
2023-03-20T14:56:50.751Z,61.83
2023-03-20T14:59:19.659Z,60.32
2023-03-20T15:01:47.714Z,60.06
2023-03-20T15:04:26.340Z,60.79
2023-03-20T15:06:58.793Z,59.67
2023-03-20T15:09:27.441Z,59.59
2023-03-20T15:11:59.576Z,60.80
2023-03-20T15:14:29.184Z,60.25
2023-03-20T15:17:01.153Z,60.51
2023-03-20T15:19:28.327Z,59.56
2023-03-20T15:21:55.830Z,59.17
2023-03-20T15:24:23.703Z,58.42
2023-03-20T15:26:55.693Z,57.82
2023-03-20T15:29:23.180Z,57.52
2023-03-20T15:32:15.610Z,57.67
2023-03-20T15:34:43.013Z,57.43
2023-03-20T15:37:19.873Z,57.20
2023-03-20T15:39:53.780Z,57.66
2023-03-20T15:42:24.098Z,58.40
2023-03-20T15:44:53.238Z,60.20
2023-03-20T15:47:24.682Z,61.30
2023-03-20T15:49:56.800Z,62.13
2023-03-20T15:52:32.302Z,62.91
2023-03-20T15:55:03.100Z,62.69
2023-03-20T15:57:42.062Z,61.94
2023-03-20T16:00:24.147Z,61.78
2023-03-20T16:02:50.801Z,61.98
2023-03-20T16:05:18.665Z,61.26
2023-03-20T16:07:45.093Z,60.73
2023-03-20T16:10:17.517Z,60.80
2023-03-20T16:12:49.481Z,60.81
2023-03-20T16:15:20.182Z,60.59
2023-03-20T16:17:50.859Z,60.42
2023-03-20T16:20:18.151Z,60.33
2023-03-20T16:22:45.871Z,60.20
2023-03-20T16:25:15.996Z,59.46
2023-03-20T16:27:45.687Z,60.32
2023-03-20T16:30:19.436Z,59.42
2023-03-20T16:32:51.129Z,59.57
2023-03-20T16:35:25.792Z,58.67
2023-03-20T16:37:56.819Z,58.89
2023-03-20T16:40:35.962Z,59.13
2023-03-20T16:43:28.324Z,59.22
2023-03-20T16:45:57.161Z,59.81
2023-03-20T16:48:23.496Z,59.53
2023-03-20T16:50:56.872Z,60.68
2023-03-20T16:53:24.846Z,61.08
2023-03-20T16:55:55.812Z,60.92
2023-03-20T16:58:27.170Z,61.29
2023-03-20T17:01:06.203Z,61.33
2023-03-20T17:03:45.878Z,60.61
2023-03-20T17:06:21.585Z,61.12
2023-03-20T17:08:52.713Z,60.72
2023-03-20T17:11:29.138Z,60.07
2023-03-20T17:13:55.554Z,60.38
2023-03-20T17:16:22.622Z,59.89
2023-03-20T17:18:59.642Z,60.10
2023-03-20T17:21:26.090Z,60.26
2023-03-20T17:23:52.901Z,60.22
2023-03-20T17:26:19.273Z,60.84
2023-03-20T17:28:46.011Z,60.48
2023-03-20T17:31:14.091Z,60.28
2023-03-20T17:33:41.252Z,60.11
2023-03-20T17:36:29.843Z,60.22
2023-03-20T17:38:57.643Z,60.97
2023-03-20T17:41:25.199Z,60.13
2023-03-20T17:43:52.147Z,60.54
2023-03-20T17:46:27.002Z,60.63
2023-03-20T17:48:59.339Z,60.47
2023-03-20T17:51:25.886Z,60.77
2023-03-20T17:53:55.410Z,60.99
2023-03-20T17:56:22.424Z,61.00
2023-03-20T17:58:48.949Z,61.04
2023-03-20T18:01:15.469Z,61.28
2023-03-20T18:03:42.366Z,61.55
2023-03-20T18:06:19.940Z,61.50
2023-03-20T18:08:46.362Z,61.91
2023-03-20T18:11:12.782Z,61.99
2023-03-20T18:13:39.139Z,62.93
2023-03-20T18:16:05.807Z,63.24
2023-03-20T18:18:32.361Z,63.56
2023-03-20T18:20:59.382Z,63.82
2023-03-20T18:23:25.754Z,64.18
2023-03-20T18:25:52.206Z,63.94
2023-03-20T18:28:22.734Z,64.57
2023-03-20T18:30:50.614Z,64.25
2023-03-20T18:33:17.244Z,64.39
2023-03-20T18:35:43.886Z,64.07
2023-03-20T18:38:13.719Z,64.07
2023-03-20T18:40:42.530Z,64.79
2023-03-20T18:43:10.664Z,64.70
2023-03-20T18:45:40.513Z,64.75
2023-03-20T18:48:11.491Z,65.05
2023-03-20T18:50:42.212Z,65.26
2023-03-20T18:53:10.781Z,65.91
2023-03-20T18:55:38.295Z,65.78
2023-03-20T18:58:06.408Z,65.48
2023-03-20T19:00:42.653Z,65.52
2023-03-20T19:03:11.056Z,65.79
2023-03-20T19:05:37.693Z,66.40
2023-03-20T19:08:04.920Z,66.05
2023-03-20T19:10:40.532Z,66.01
2023-03-20T19:13:10.971Z,66.06
2023-03-20T19:15:38.563Z,65.95
2023-03-20T19:18:07.229Z,65.68
2023-03-20T19:20:42.106Z,66.46
2023-03-20T19:23:10.818Z,65.80
2023-03-20T19:25:38.262Z,66.32
2023-03-20T19:28:05.811Z,65.83
2023-03-20T19:30:35.870Z,66.03
2023-03-20T19:33:03.338Z,65.64
2023-03-20T19:35:58.454Z,66.26
2023-03-20T19:38:21.779Z,66.03
2023-03-20T19:40:52.867Z,66.04
2023-03-20T19:43:23.164Z,65.85
2023-03-20T19:45:57.990Z,65.96
2023-03-20T19:48:43.231Z,66.12
2023-03-20T19:51:18.976Z,65.54
2023-03-20T19:53:46.406Z,65.49
2023-03-20T19:56:14.466Z,65.54
2023-03-20T19:58:44.369Z,65.40
2023-03-20T20:01:17.058Z,65.27
2023-03-20T20:03:45.026Z,65.41
2023-03-20T20:06:12.358Z,64.96
2023-03-20T20:08:47.983Z,65.19
2023-03-20T20:11:15.951Z,65.23
2023-03-20T20:14:03.559Z,64.91
2023-03-20T20:16:31.643Z,65.17
2023-03-20T20:18:58.073Z,65.37
2023-03-20T20:24:50.563Z,64.91
2023-03-20T20:27:18.948Z,65.11
2023-03-20T20:29:50.736Z,65.08
2023-03-20T20:32:21.962Z,65.26
2023-03-20T20:36:27.877Z,65.13
2023-03-20T20:54:14.119Z,64.39
2023-03-20T20:56:40.897Z,64.53
2023-03-20T20:59:08.960Z,64.18
2023-03-20T21:01:39.661Z,64.26
2023-03-20T21:04:08.547Z,64.53
2023-03-20T21:07:06.125Z,64.58
2023-03-20T21:09:26.524Z,64.09
2023-03-20T21:11:53.004Z,64.05
2023-03-20T21:14:19.708Z,64.10
2023-03-20T21:16:46.189Z,64.09
2023-03-20T21:19:24.562Z,64.31
2023-03-20T21:21:51.216Z,64.28
2023-03-20T21:24:31.471Z,64.05
2023-03-20T21:27:00.360Z,63.67
2023-03-20T21:29:27.265Z,64.33
2023-03-20T21:31:53.880Z,64.02
2023-03-20T21:34:20.657Z,64.22
2023-03-20T21:36:49.233Z,64.14
2023-03-20T21:39:17.208Z,64.01
2023-03-20T21:41:44.145Z,64.02
2023-03-20T21:44:17.106Z,64.34
2023-03-20T21:47:29.445Z,63.97
2023-03-20T21:53:06.756Z,64.31
2023-03-20T21:56:16.950Z,64.54
2023-03-20T21:58:44.566Z,64.57
2023-03-20T22:04:19.114Z,63.89
2023-03-20T22:12:59.395Z,64.23
2023-03-20T22:15:38.812Z,63.99
2023-03-20T22:17:59.793Z,64.15
2023-03-20T22:29:28.643Z,63.96
2023-03-20T22:45:42.454Z,63.47
2023-03-20T22:48:14.660Z,63.21
2023-03-20T22:50:44.347Z,63.78
2023-03-20T22:53:11.133Z,63.71
2023-03-20T22:55:41.641Z,63.35
2023-03-20T22:58:10.208Z,64.02
2023-03-20T23:00:37.375Z,63.66
2023-03-20T23:03:42.200Z,64.21
2023-03-20T23:06:21.097Z,64.31
2023-03-20T23:08:54.559Z,63.85
2023-03-20T23:11:24.618Z,63.92
2023-03-20T23:13:56.469Z,63.81
2023-03-20T23:16:23.174Z,63.84
2023-03-20T23:19:07.602Z,63.95
2023-03-20T23:21:34.129Z,64.26
2023-03-20T23:24:00.583Z,63.69
2023-03-20T23:26:30.160Z,63.89
2023-03-20T23:28:57.720Z,63.84
2023-03-20T23:31:26.615Z,63.67
2023-03-20T23:33:59.097Z,63.99
2023-03-20T23:36:36.404Z,64.72
2023-03-20T23:39:06.153Z,64.09
2023-03-20T23:42:04.697Z,64.00
2023-03-20T23:44:22.295Z,64.46
2023-03-20T23:46:49.145Z,64.13
2023-03-20T23:49:17.885Z,64.21
2023-03-20T23:51:46.613Z,63.83
2023-03-20T23:54:14.691Z,64.13
2023-03-20T23:56:45.202Z,64.16
2023-03-20T23:59:21.952Z,64.42
